Time;durP1;ratioP1;P1;durP2;ratioP2;P2;SDS_P1;SDS_P2;PMS_P1;PMS_P2;Temp;Humidity;BMP_temperature;BMP_pressure;BME280_temperature;BME280_humidity;BME280_pressure;Samples;Min_cycle;Max_cycle;Signal;HPM_P1;HPM_P2
2023/08/13 00:02:19;;;;;;;;;6.50;4.75;;;;;23.21;43.04;101316.94;5041524;28;45635;-65
2023/08/13 00:04:44;;;;;;;;;5.00;4.00;;;;;23.18;43.12;101318.91;5041249;28;45573;-65
2023/08/13 00:07:11;;;;;;;;;5.00;5.00;;;;;23.16;43.23;101320.84;5040764;28;58155;-65
2023/08/13 00:09:36;;;;;;;;;5.50;5.50;;;;;23.13;43.17;101321.84;5041208;28;45261;-65
2023/08/13 00:12:02;;;;;;;;;5.00;5.00;;;;;23.09;43.30;101314.94;5041006;28;45585;-65
2023/08/13 00:14:27;;;;;;;;;6.00;5.00;;;;;23.07;43.42;101313.28;5041145;28;45248;-65
2023/08/13 00:16:53;;;;;;;;;6.50;4.75;;;;;23.05;43.43;101313.38;5041174;28;45262;-65
2023/08/13 00:19:18;;;;;;;;;4.25;3.50;;;;;23.01;43.16;101311.84;5041077;28;45201;-65
2023/08/13 00:21:43;;;;;;;;;5.50;5.25;;;;;23.00;43.15;101316.31;5041040;28;45257;-65
2023/08/13 00:24:09;;;;;;;;;6.00;6.00;;;;;22.93;43.66;101306.03;5041017;28;45262;-65
2023/08/13 00:26:36;;;;;;;;;5.50;5.50;;;;;22.93;43.51;101312.28;5040848;28;45416;-65
2023/08/13 00:29:02;;;;;;;;;5.75;5.25;;;;;22.90;43.39;101307.09;5040691;28;45388;-65
2023/08/13 00:31:27;;;;;;;;;4.25;4.00;;;;;22.88;43.46;101306.34;5023013;28;45316;-65
2023/08/13 00:33:53;;;;;;;;;5.00;4.25;;;;;22.83;43.87;101300.34;5040908;28;45474;-65
2023/08/13 00:36:18;;;;;;;;;7.00;5.50;;;;;22.79;43.81;101290.75;5040753;28;45277;-65
2023/08/13 00:38:43;;;;;;;;;9.00;5.25;;;;;22.78;43.38;101299.75;5040512;28;50953;-65
2023/08/13 00:41:08;;;;;;;;;4.75;4.50;;;;;22.73;43.84;101305.38;5040748;28;45437;-65
2023/08/13 00:43:36;;;;;;;;;6.25;5.25;;;;;22.69;43.89;101295.78;5040623;28;45511;-65
2023/08/13 00:46:02;;;;;;;;;5.00;4.00;;;;;22.67;44.04;101293.19;5040688;28;46099;-65
2023/08/13 00:48:27;;;;;;;;;6.50;6.00;;;;;22.60;44.09;101286.44;5040695;28;45242;-65
2023/08/13 00:50:53;;;;;;;;;9.25;6.50;;;;;22.60;44.00;101286.44;5040332;28;49024;-65
2023/08/13 00:53:20;;;;;;;;;7.00;5.00;;;;;22.57;44.24;101283.94;5040674;28;45196;-65
2023/08/13 00:55:45;;;;;;;;;5.75;4.25;;;;;22.55;44.24;101288.53;5040378;28;45175;-65
2023/08/13 00:58:11;;;;;;;;;4.00;3.00;;;;;22.52;43.97;101296.75;5040396;28;45246;-65
2023/08/13 01:00:38;;;;;;;;;5.00;4.00;;;;;22.47;44.46;101288.94;5039877;28;45395;-65
2023/08/13 01:03:03;;;;;;;;;4.00;3.25;;;;;22.45;44.20;101287.31;5040273;28;45424;-65
2023/08/13 01:05:47;;;;;;;;;5.00;5.00;;;;;22.42;44.30;101291.03;5040260;28;46284;-65
2023/08/13 01:08:39;;;;;;;;;6.75;5.75;;;;;22.38;44.53;101295.69;5040382;28;45475;-65
2023/08/13 01:11:45;;;;;;;;;4.50;4.50;;;;;22.35;44.26;101290.47;5040200;28;45249;-65
2023/08/13 01:14:22;;;;;;;;;5.00;5.00;;;;;22.33;44.66;101281.66;5032313;28;45214;-65
2023/08/13 01:16:47;;;;;;;;;2.25;2.25;;;;;22.31;44.47;101280.88;5040107;28;45333;-65
2023/08/13 01:19:13;;;;;;;;;4.00;4.00;;;;;;;;5040133;28;45242;-65
2023/08/13 01:21:39;;;;;;;;;4.25;4.25;;;;;22.29;44.39;101292.59;5040056;28;45281;-66
2023/08/13 01:24:05;;;;;;;;;5.50;4.25;;;;;22.26;44.77;101290.13;5038716;28;45349;-65
2023/08/13 01:26:37;;;;;;;;;5.00;4.00;;;;;22.24;44.76;101292.88;5038357;28;45364;-65
2023/08/13 01:29:14;;;;;;;;;5.00;4.00;;;;;22.23;44.43;101293.81;5038279;28;45355;-65
2023/08/13 01:31:46;;;;;;;;;3.00;3.00;;;;;22.21;44.83;101304.63;5038747;28;45335;-65
2023/08/13 01:34:13;;;;;;;;;6.00;4.00;;;;;22.19;44.57;101284.25;5038479;28;45415;-65
2023/08/13 01:36:39;;;;;;;;;4.00;3.00;;;;;22.16;44.99;101289.75;5038389;28;45320;-65
2023/08/13 01:39:06;;;;;;;;;5.00;5.00;;;;;22.13;45.08;101282.75;5038262;28;45391;-65
2023/08/13 01:41:50;;;;;;;;;3.00;3.00;;;;;22.13;44.70;101276.53;5038318;28;45398;-65
2023/08/13 01:44:16;;;;;;;;;4.00;3.25;;;;;22.12;45.36;101285.50;5038274;28;45459;-65
2023/08/13 01:46:41;;;;;;;;;6.00;5.25;;;;;22.10;45.02;101282.03;5037921;28;45427;-65
2023/08/13 01:49:06;;;;;;;;;5.00;4.00;;;;;22.08;45.40;101280.31;5038184;28;45377;-65
2023/08/13 01:51:32;;;;;;;;;6.75;4.75;;;;;22.07;45.16;101273.25;5038406;28;45487;-65
2023/08/13 01:53:57;;;;;;;;;5.50;3.50;;;;;22.07;45.27;101280.41;5038008;28;45393;-65
2023/08/13 01:56:23;;;;;;;;;5.00;4.50;;;;;22.06;45.17;101276.88;5037938;28;45240;-65
2023/08/13 01:58:48;;;;;;;;;9.75;5.00;;;;;22.06;45.22;101273.31;5037589;28;52110;-65
2023/08/13 02:01:13;;;;;;;;;3.50;2.50;;;;;22.05;44.96;101279.66;5036773;28;45286;-65
2023/08/13 02:03:38;;;;;;;;;7.25;4.75;;;;;22.03;45.62;101273.50;5037655;28;50858;-65
2023/08/13 02:06:04;;;;;;;;;5.25;5.25;;;;;22.01;45.06;101272.72;5038191;28;45175;-65
2023/08/13 02:08:29;;;;;;;;;6.00;4.00;;;;;21.99;45.17;101274.63;5037835;28;45334;-65
2023/08/13 02:10:54;;;;;;;;;5.00;4.00;;;;;21.96;45.51;101272.97;5036960;28;45325;-65
2023/08/13 02:13:20;;;;;;;;;4.25;4.25;;;;;21.96;45.67;101270.31;5034373;28;45522;-65
2023/08/13 02:15:45;;;;;;;;;5.00;4.00;;;;;21.94;45.37;101271.31;5026112;28;46125;-65
2023/08/13 02:18:10;;;;;;;;;6.25;4.00;;;;;21.93;45.58;101275.78;5017941;28;45421;-65
2023/08/13 02:20:35;;;;;;;;;4.50;3.50;;;;;21.91;45.32;101275.00;5018356;28;45225;-65
2023/08/13 02:23:01;;;;;;;;;4.50;4.00;;;;;21.89;45.72;101284.94;4979387;28;1121108;-64
2023/08/13 02:25:26;;;;;;;;;3.50;3.00;;;;;21.85;45.74;101288.72;5019330;28;46794;-65
2023/08/13 02:27:51;;;;;;;;;5.50;5.00;;;;;21.81;45.36;101285.34;5019133;28;45456;-65
2023/08/13 02:30:17;;;;;;;;;6.25;4.00;;;;;21.78;46.04;101290.84;5019574;28;45491;-65
2023/08/13 02:32:42;;;;;;;;;4.25;3.00;;;;;21.77;45.64;101288.25;5019302;28;45341;-64
2023/08/13 02:35:08;;;;;;;;;5.00;4.00;;;;;21.71;46.19;101286.75;5019082;28;46182;-65
2023/08/13 02:37:33;;;;;;;;;5.75;3.25;;;;;21.69;45.70;101278.81;5019176;28;45318;-64
2023/08/13 02:39:59;;;;;;;;;5.50;5.25;;;;;21.67;46.14;101272.72;5018991;28;45421;-65
2023/08/13 02:42:24;;;;;;;;;5.50;4.00;;;;;21.63;45.88;101267.59;5018869;28;45547;-65
2023/08/13 02:44:50;;;;;;;;;5.00;5.00;;;;;21.58;46.03;101259.81;5019026;28;46164;-65
2023/08/13 02:47:15;;;;;;;;;3.00;3.00;;;;;21.58;46.03;101258.00;5019017;28;45325;-65
2023/08/13 02:49:40;;;;;;;;;4.00;4.00;;;;;21.58;45.92;101257.13;5019168;28;45464;-65
2023/08/13 02:52:06;;;;;;;;;4.50;4.00;;;;;21.56;46.23;101261.72;5018977;28;45305;-65
2023/08/13 02:54:31;;;;;;;;;5.75;4.75;;;;;21.55;46.60;101271.53;5018905;28;46031;-64
2023/08/13 02:56:56;;;;;;;;;7.00;4.00;;;;;21.53;46.57;101261.81;5018516;28;45401;-65
2023/08/13 02:59:22;;;;;;;;;4.50;4.00;;;;;21.52;46.73;101262.75;5029377;28;45322;-65
2023/08/13 03:01:47;;;;;;;;;4.25;3.75;;;;;21.50;46.32;101268.19;5038696;28;45467;-65
2023/08/13 03:04:12;;;;;;;;;5.75;4.00;;;;;21.50;46.52;101262.00;5038556;28;45241;-64
2023/08/13 03:06:38;;;;;;;;;4.25;4.25;;;;;21.49;46.17;101254.91;5038900;28;45242;-64
2023/08/13 03:09:03;;;;;;;;;5.00;4.75;;;;;21.49;46.11;101254.91;5038782;28;45446;-64
2023/08/13 03:11:29;;;;;;;;;5.00;3.50;;;;;21.49;46.56;101260.25;5038506;28;45529;-64
2023/08/13 03:13:54;;;;;;;;;5.00;5.00;;;;;21.49;46.29;101265.59;5038214;28;46258;-64
2023/08/13 03:16:20;;;;;;;;;2.75;2.75;;;;;21.42;46.53;101249.00;5038666;28;45339;-64
2023/08/13 03:18:45;;;;;;;;;8.00;4.75;;;;;21.47;46.90;101254.13;5038927;28;45206;-64
2023/08/13 03:21:11;;;;;;;;;6.00;5.00;;;;;21.45;46.78;101250.69;5038527;28;45222;-64
2023/08/13 03:23:36;;;;;;;;;5.75;3.25;;;;;21.42;46.87;101249.00;5022513;28;45729;-64
2023/08/13 03:26:03;;;;;;;;;4.25;3.75;;;;;21.41;47.04;101248.16;5041787;28;45450;-64
2023/08/13 03:28:28;;;;;;;;;5.00;3.00;;;;;21.41;46.56;101252.66;5042039;28;45815;-64
2023/08/13 03:31:02;;;;;;;;;4.75;3.00;;;;;21.42;46.51;101249.88;5041729;28;45435;-64
2023/08/13 03:33:27;;;;;;;;;4.25;3.75;;;;;21.40;46.89;101254.44;5041756;28;48276;-64
2023/08/13 03:35:53;;;;;;;;;3.25;3.00;;;;;21.36;46.82;101247.53;5041623;28;45649;-64
2023/08/13 03:38:18;;;;;;;;;5.00;4.50;;;;;21.39;47.13;101263.41;5042093;28;45373;-64
2023/08/13 03:40:43;;;;;;;;;4.75;4.75;;;;;21.37;46.59;101251.94;5041651;28;45305;-64
2023/08/13 03:43:09;;;;;;;;;4.75;3.50;;;;;21.35;47.32;101256.50;5041300;28;49958;-64
2023/08/13 03:45:34;;;;;;;;;6.00;5.00;;;;;21.35;47.18;101253.81;5041444;28;45262;-64
2023/08/13 03:47:59;;;;;;;;;6.75;4.00;;;;;21.31;47.36;101254.91;5041476;28;47019;-65
2023/08/13 03:50:24;;;;;;;;;4.50;4.50;;;;;21.29;47.43;101258.63;5041375;28;53708;-65
2023/08/13 03:52:50;;;;;;;;;3.50;3.50;;;;;21.30;47.10;101265.69;5041719;28;45482;-64
2023/08/13 03:55:16;;;;;;;;;4.75;3.75;;;;;21.27;47.04;101259.56;5023253;28;45464;-64
2023/08/13 03:57:41;;;;;;;;;4.00;4.00;;;;;21.23;47.45;101241.97;5041509;28;45689;-64
2023/08/13 04:00:07;;;;;;;;;4.00;4.00;;;;;21.21;47.18;101254.53;5040872;28;51676;-65
2023/08/13 04:02:33;;;;;;;;;5.50;4.25;;;;;21.19;47.25;101250.19;5041420;28;46452;-65
2023/08/13 04:04:58;;;;;;;;;1.25;1.25;;;;;21.15;47.30;101246.81;5041155;28;45365;-65
2023/08/13 04:07:23;;;;;;;;;2.75;1.75;;;;;21.11;47.41;101246.09;5041521;28;45267;-65
2023/08/13 04:09:48;;;;;;;;;3.50;3.50;;;;;21.10;47.72;101254.19;5040958;28;48307;-65
2023/08/13 04:12:14;;;;;;;;;6.50;4.75;;;;;21.07;47.80;101265.91;5040781;28;51350;-64
2023/08/13 04:14:39;;;;;;;;;4.00;3.25;;;;;21.04;47.85;101260.75;5041027;28;45164;-65
2023/08/13 04:17:04;;;;;;;;;4.00;3.75;;;;;21.02;47.67;101257.25;5041367;28;45271;-64
2023/08/13 04:19:30;;;;;;;;;5.75;4.75;;;;;21.02;47.64;101265.28;5041150;28;45318;-64
2023/08/13 04:21:55;;;;;;;;;6.50;4.00;;;;;20.96;47.88;101256.72;5040883;28;45328;-65
2023/08/13 04:24:20;;;;;;;;;7.50;4.00;;;;;20.96;47.84;101262.06;5040731;28;48962;-65
2023/08/13 04:26:46;;;;;;;;;4.75;3.00;;;;;20.93;47.91;101261.25;5040858;28;45182;-65
2023/08/13 04:29:11;;;;;;;;;4.75;4.00;;;;;20.90;47.92;101255.19;5040961;28;45447;-65
2023/08/13 04:31:37;;;;;;;;;5.75;3.00;;;;;20.87;47.83;101258.88;5040852;28;46001;-65
2023/08/13 04:34:02;;;;;;;;;3.00;3.00;;;;;20.84;48.39;101258.16;5039853;28;45336;-65
2023/08/13 04:36:28;;;;;;;;;5.50;5.50;;;;;20.74;47.71;101247.94;5028016;28;45455;-65
2023/08/13 04:38:53;;;;;;;;;2.50;2.50;;;;;20.78;48.63;101260.19;5025875;28;45325;-65
2023/08/13 04:41:18;;;;;;;;;4.75;3.75;;;;;20.73;47.80;101256.03;5020606;28;54670;-65
2023/08/13 04:43:44;;;;;;;;;3.50;3.00;;;;;20.72;47.99;101251.63;5020468;28;45413;-65
2023/08/13 04:46:09;;;;;;;;;3.00;2.50;;;;;20.73;48.62;101261.38;5019646;28;45481;-65
2023/08/13 04:48:45;;;;;;;;;5.25;4.00;;;;;20.69;48.51;101257.97;5020657;28;45323;-65
2023/08/13 04:51:11;;;;;;;;;6.75;3.00;;;;;20.66;48.35;101258.09;5020830;28;45575;-65
2023/08/13 04:53:37;;;;;;;;;6.75;5.00;;;;;20.63;48.28;101259.09;5020524;28;45362;-65
2023/08/13 04:56:02;;;;;;;;;5.25;5.00;;;;;20.62;48.41;101259.19;5020818;28;45245;-65
2023/08/13 04:58:27;;;;;;;;;7.50;4.00;;;;;20.59;48.32;101259.31;5023327;28;45242;-65
2023/08/13 05:00:53;;;;;;;;;4.00;4.00;;;;;20.58;49.08;101261.13;5040429;28;45294;-65
2023/08/13 05:03:18;;;;;;;;;4.00;4.00;;;;;20.56;49.15;101262.16;5040337;28;45325;-65
2023/08/13 05:05:43;;;;;;;;;6.25;5.00;;;;;20.51;48.52;101261.50;5040595;28;45175;-65
2023/08/13 05:08:08;;;;;;;;;3.00;3.00;;;;;20.50;48.56;101265.97;5040469;28;45406;-65
2023/08/13 05:10:34;;;;;;;;;5.00;4.00;;;;;20.49;49.05;101258.03;5022028;28;54722;-65
2023/08/13 05:13:01;;;;;;;;;4.75;4.75;;;;;20.47;49.00;101266.13;5021894;28;45266;-65
2023/08/13 05:15:26;;;;;;;;;5.00;2.00;;;;;20.45;48.75;101268.00;5040429;28;45246;-64
2023/08/13 05:17:52;;;;;;;;;6.00;3.50;;;;;20.44;48.89;101258.28;5040087;28;45337;-65
2023/08/13 05:20:17;;;;;;;;;5.00;3.50;;;;;20.43;49.33;101270.75;5040296;28;48209;-65
2023/08/13 05:22:42;;;;;;;;;6.25;4.00;;;;;20.41;49.41;101269.09;5040044;28;46489;-64
2023/08/13 05:25:08;;;;;;;;;6.25;6.25;;;;;20.39;48.96;101257.59;5040040;28;45537;-64
2023/08/13 05:27:33;;;;;;;;;6.00;4.00;;;;;20.37;48.98;101255.00;5039896;28;45551;-65
2023/08/13 05:29:59;;;;;;;;;7.00;4.00;;;;;20.36;49.17;101253.28;5026929;28;46007;-65
2023/08/13 05:32:25;;;;;;;;;3.25;3.00;;;;;20.38;49.25;101262.09;5025316;28;45915;-65
2023/08/13 05:34:50;;;;;;;;;4.00;4.00;;;;;20.36;49.93;101265.78;5020118;28;45362;-65
2023/08/13 05:37:16;;;;;;;;;3.50;3.00;;;;;20.36;49.11;101257.75;5019887;28;45401;-65
2023/08/13 05:39:41;;;;;;;;;4.50;3.00;;;;;20.37;49.28;101264.84;5019817;28;48881;-65
2023/08/13 05:42:06;;;;;;;;;3.00;3.00;;;;;20.36;49.70;101263.09;5019595;28;45312;-64
2023/08/13 05:44:32;;;;;;;;;3.75;3.75;;;;;20.37;49.81;101262.16;5020209;28;45349;-65
2023/08/13 05:46:57;;;;;;;;;5.00;3.75;;;;;20.37;49.74;101264.84;5019576;28;45456;-65
2023/08/13 05:49:23;;;;;;;;;5.25;3.25;;;;;20.39;49.71;101268.28;5019923;28;45258;-64
2023/08/13 05:51:48;;;;;;;;;3.50;3.50;;;;;20.39;49.71;101271.84;5019829;28;45238;-64
2023/08/13 05:54:14;;;;;;;;;3.50;3.00;;;;;20.39;49.64;101273.63;5019993;28;45140;-65
2023/08/13 05:56:40;;;;;;;;;4.25;4.25;;;;;20.40;49.55;101270.91;5019194;28;45246;-65
2023/08/13 05:59:05;;;;;;;;;3.75;2.75;;;;;20.42;49.47;101270.81;5027652;28;46160;-65
2023/08/13 06:01:31;;;;;;;;;5.00;5.00;;;;;20.42;49.53;101274.34;5039576;28;45294;-65
2023/08/13 06:03:56;;;;;;;;;5.50;5.25;;;;;20.43;49.45;101277.91;5039732;28;45310;-64
2023/08/13 06:06:21;;;;;;;;;7.00;4.50;;;;;20.43;50.07;101272.56;5039599;28;45243;-65
2023/08/13 06:08:48;;;;;;;;;4.75;3.50;;;;;20.46;49.95;101272.41;5039493;28;46150;-65
2023/08/13 06:11:13;;;;;;;;;7.25;4.25;;;;;20.47;49.79;101287.47;5039342;28;45350;-65
2023/08/13 06:13:39;;;;;;;;;7.75;7.00;;;;;20.46;50.03;101280.41;5039113;28;45293;-65
2023/08/13 06:16:06;;;;;;;;;4.00;3.25;;;;;20.48;50.16;101281.22;5039282;28;45429;-65
2023/08/13 06:18:31;;;;;;;;;7.25;4.25;;;;;20.50;50.09;101276.63;5039286;28;46047;-65
2023/08/13 06:20:57;;;;;;;;;10.75;5.75;;;;;20.51;50.14;101281.03;5038928;28;45313;-65
2023/08/13 06:23:22;;;;;;;;;8.50;6.25;;;;;20.53;50.21;101281.84;5039264;28;45316;-65
2023/08/13 06:25:48;;;;;;;;;5.00;2.00;;;;;20.46;49.61;101265.28;5037840;28;45429;-65
2023/08/13 06:28:13;;;;;;;;;5.25;4.50;;;;;20.56;50.30;101286.19;5039127;28;45213;-65
2023/08/13 06:30:38;;;;;;;;;6.25;4.00;;;;;20.57;50.34;101282.56;5031443;28;45279;-65
2023/08/13 06:33:04;;;;;;;;;4.25;4.25;;;;;20.55;49.76;101280.00;5019541;28;45558;-65
2023/08/13 06:35:29;;;;;;;;;3.75;3.75;;;;;20.58;50.47;101284.31;5017788;28;45239;-65
2023/08/13 06:37:55;;;;;;;;;5.50;4.00;;;;;20.57;50.56;101275.41;5019319;28;46030;-65
2023/08/13 06:40:20;;;;;;;;;4.75;3.00;;;;;20.58;50.13;101279.81;5001230;28;47224;-65
2023/08/13 06:42:45;;;;;;;;;3.25;3.25;;;;;20.60;50.18;101285.09;5019185;28;45258;-65
2023/08/13 06:45:12;;;;;;;;;4.50;2.75;;;;;20.61;50.02;101279.66;5019057;28;45464;-65
2023/08/13 06:47:38;;;;;;;;;5.50;2.25;;;;;20.63;50.25;101288.47;5019200;28;47127;-65
2023/08/13 06:50:04;;;;;;;;;3.00;3.00;;;;;20.63;50.49;101291.16;5018941;28;45355;-65
2023/08/13 06:52:29;;;;;;;;;6.50;5.00;;;;;20.63;50.52;101288.47;5019191;28;45329;-65
2023/08/13 06:54:54;;;;;;;;;7.00;4.00;;;;;20.64;50.81;101286.69;5018825;28;45310;-65
2023/08/13 06:57:20;;;;;;;;;6.00;4.25;;;;;20.62;50.44;101292.09;5019453;28;47693;-65
2023/08/13 06:59:45;;;;;;;;;5.75;5.25;;;;;20.63;50.16;101288.47;5034822;28;45317;-65
2023/08/13 07:02:10;;;;;;;;;5.75;4.50;;;;;20.68;50.44;101288.28;5041037;28;45372;-65
2023/08/13 07:04:35;;;;;;;;;3.00;2.25;;;;;20.70;50.28;101293.53;5042047;28;52380;-65
2023/08/13 07:07:01;;;;;;;;;6.00;2.75;;;;;20.72;50.56;101289.88;5042168;28;50553;-65
2023/08/13 07:09:27;;;;;;;;;4.00;4.00;;;;;20.70;50.83;101289.03;5042294;28;45329;-65
2023/08/13 07:11:53;;;;;;;;;3.75;3.50;;;;;20.75;50.40;101296.88;5042125;28;45295;-65
2023/08/13 07:14:18;;;;;;;;;8.00;5.00;;;;;20.74;50.70;101289.78;5042316;28;45311;-65
2023/08/13 07:16:44;;;;;;;;;3.25;3.00;;;;;20.75;50.34;101295.09;5042122;28;46718;-65
2023/08/13 07:19:09;;;;;;;;;4.00;4.00;;;;;20.77;50.46;101295.84;5041302;28;45286;-65
2023/08/13 07:21:36;;;;;;;;;3.00;2.00;;;;;20.76;51.02;101293.25;5042197;28;45211;-65
2023/08/13 07:24:03;;;;;;;;;4.50;3.75;;;;;20.79;50.30;101293.09;5033139;28;45509;-65
2023/08/13 07:26:29;;;;;;;;;5.00;4.00;;;;;20.79;50.82;101298.44;5021405;28;45426;-65
2023/08/13 07:28:55;;;;;;;;;5.00;3.00;;;;;20.79;50.23;101287.75;5022032;28;45392;-65
2023/08/13 07:31:20;;;;;;;;;3.00;2.00;;;;;20.82;50.50;101295.63;5022204;28;45517;-66
2023/08/13 07:33:45;;;;;;;;;4.25;3.00;;;;;20.84;50.88;101290.22;5020601;28;45473;-65
2023/08/13 07:36:11;;;;;;;;;3.25;3.00;;;;;20.84;51.04;101295.56;5021935;28;45592;-65
2023/08/13 07:38:36;;;;;;;;;8.25;3.75;;;;;20.85;50.57;101291.97;5021885;28;45397;-66
2023/08/13 07:41:03;;;;;;;;;3.00;2.00;;;;;20.85;50.45;101292.81;5021859;28;45266;-65
2023/08/13 07:43:30;;;;;;;;;2.25;2.00;;;;;20.85;51.13;101294.63;5021708;28;45250;-65
2023/08/13 07:45:55;;;;;;;;;2.00;2.00;;;;;20.86;50.66;101299.03;5021542;28;45375;-65
2023/08/13 07:48:20;;;;;;;;;5.00;2.50;;;;;20.89;50.64;101293.53;5021644;28;45287;-65
2023/08/13 07:50:46;;;;;;;;;2.00;2.00;;;;;20.85;51.35;101282.13;5021689;28;47110;-66
2023/08/13 07:53:12;;;;;;;;;3.00;2.00;;;;;20.92;51.28;101290.72;5021780;28;45380;-66
2023/08/13 07:55:37;;;;;;;;;2.00;2.00;;;;;20.97;51.16;101285.13;5021505;28;45275;-65
2023/08/13 07:58:03;;;;;;;;;6.00;2.00;;;;;21.00;51.10;101293.88;5021220;28;48608;-65
2023/08/13 08:00:28;;;;;;;;;4.50;3.75;;;;;21.03;50.57;101290.19;5023567;28;45497;-65
2023/08/13 08:02:53;;;;;;;;;6.00;4.00;;;;;21.08;50.61;101289.03;5041411;28;45237;-65
2023/08/13 08:05:20;;;;;;;;;6.50;2.75;;;;;21.11;50.69;101291.53;5041264;28;45335;-65
2023/08/13 08:07:45;;;;;;;;;2.25;2.25;;;;;21.16;50.85;101285.97;5041427;28;45386;-65
2023/08/13 08:10:11;;;;;;;;;3.75;2.25;;;;;21.21;51.03;101283.91;5040427;28;45307;-65
2023/08/13 08:12:36;;;;;;;;;6.25;3.00;;;;;21.24;51.01;101282.91;5041148;28;45313;-65
2023/08/13 08:15:03;;;;;;;;;3.00;3.00;;;;;21.30;50.54;101285.25;5023302;28;45257;-65
2023/08/13 08:17:28;;;;;;;;;6.00;3.00;;;;;21.34;50.76;101289.50;5041266;28;45463;-65
2023/08/13 08:19:54;;;;;;;;;3.50;1.75;;;;;21.36;50.46;101287.63;5040951;28;45425;-65
2023/08/13 08:22:19;;;;;;;;;4.50;3.75;;;;;21.42;51.08;101289.97;5040907;28;45523;-65
2023/08/13 08:24:44;;;;;;;;;4.00;4.00;;;;;21.46;51.08;101285.34;5040831;28;45974;-65
2023/08/13 08:27:10;;;;;;;;;3.00;2.75;;;;;21.50;50.82;101286.06;5040189;28;45248;-65
2023/08/13 08:29:36;;;;;;;;;1.75;1.75;;;;;21.55;50.64;101284.00;5040992;28;45914;-65
2023/08/13 08:32:01;;;;;;;;;4.50;3.00;;;;;21.60;50.33;101284.66;5032449;28;45262;-65
2023/08/13 08:34:27;;;;;;;;;3.75;2.00;;;;;21.65;50.74;101287.97;5021437;28;46065;-65
2023/08/13 08:36:52;;;;;;;;;2.00;2.00;;;;;21.69;50.44;101281.50;5020389;28;45519;-65
2023/08/13 08:39:18;;;;;;;;;2.50;2.50;;;;;21.75;50.70;101278.50;5020946;28;45332;-65
2023/08/13 08:41:46;;;;;;;;;2.00;2.00;;;;;21.79;50.70;101273.88;5020456;28;45392;-65
2023/08/13 08:44:20;;;;;;;;;5.25;4.00;;;;;21.86;50.70;101277.94;5020828;28;47104;-65
2023/08/13 08:46:48;;;;;;;;;2.00;2.00;;;;;21.92;50.26;101276.75;5020689;28;45333;-65
2023/08/13 08:49:16;;;;;;;;;5.75;3.00;;;;;21.96;50.35;101266.75;5021134;28;45681;-65
2023/08/13 08:51:42;;;;;;;;;2.25;2.25;;;;;22.03;50.30;101260.97;5020676;28;45512;-65
2023/08/13 08:54:07;;;;;;;;;5.00;2.25;;;;;22.08;50.36;101266.94;5020759;28;46126;-65
2023/08/13 08:56:33;;;;;;;;;5.75;2.00;;;;;22.15;50.14;101274.63;5020150;28;45326;-65
2023/08/13 08:58:58;;;;;;;;;3.00;2.00;;;;;22.22;49.85;101282.22;5027882;28;45283;-65
2023/08/13 09:01:24;;;;;;;;;4.00;2.50;;;;;22.26;50.02;101271.38;5040582;28;45526;-65
2023/08/13 09:03:49;;;;;;;;;1.00;1.00;;;;;22.34;49.97;101274.47;5040451;28;45330;-65
2023/08/13 09:06:14;;;;;;;;;4.00;3.00;;;;;22.37;49.93;101275.22;5040397;28;45414;-65
2023/08/13 09:08:40;;;;;;;;;5.00;2.00;;;;;22.44;50.03;101272.19;5040639;28;45320;-65
2023/08/13 09:11:06;;;;;;;;;1.50;0.00;;;;;22.49;50.06;101267.44;5040190;28;45492;-65
2023/08/13 09:13:33;;;;;;;;;1.00;1.00;;;;;22.53;49.41;101269.88;5039886;28;46814;-65
2023/08/13 09:15:59;;;;;;;;;1.50;1.00;;;;;22.57;49.20;101275.91;5040183;28;45252;-66
2023/08/13 09:18:24;;;;;;;;;1.50;0.50;;;;;22.62;49.08;101281.88;5040683;28;45221;-66
2023/08/13 09:20:49;;;;;;;;;2.00;2.00;;;;;22.67;49.41;101278.94;5038778;28;45586;-66
2023/08/13 09:23:24;;;;;;;;;2.00;2.00;;;;;22.73;49.17;101281.28;5040226;28;46130;-66
2023/08/13 09:25:54;;;;;;;;;0.00;0.00;;;;;22.78;49.19;101273.84;5040012;28;45245;-66
2023/08/13 09:28:19;;;;;;;;;1.00;1.00;;;;;22.82;49.23;101269.19;5040020;28;45303;-66
2023/08/13 09:30:46;;;;;;;;;1.00;1.00;;;;;22.87;49.08;101270.63;5040013;28;45263;-66
2023/08/13 09:33:13;;;;;;;;;3.75;1.00;;;;;22.91;49.07;101273.13;5040041;28;46234;-66
2023/08/13 09:35:40;;;;;;;;;1.00;1.00;;;;;22.94;48.92;101267.59;5039829;28;45373;-66
2023/08/13 09:38:05;;;;;;;;;4.50;3.00;;;;;23.01;48.86;101269.81;5040138;28;45210;-66
2023/08/13 09:40:31;;;;;;;;;2.25;2.00;;;;;23.01;49.04;101261.78;5031973;28;45326;-66
2023/08/13 09:42:58;;;;;;;;;1.00;0.00;;;;;23.11;49.10;101274.66;5019860;28;45339;-66
2023/08/13 09:45:28;;;;;;;;;1.00;1.00;;;;;23.18;48.68;101268.00;5019894;28;45305;-66
2023/08/13 09:47:55;;;;;;;;;3.50;0.00;;;;;23.20;48.60;101260.72;5019812;28;45342;-66
2023/08/13 09:50:24;;;;;;;;;2.00;0.50;;;;;23.24;48.49;101246.19;5019817;28;45152;-65
2023/08/13 09:52:52;;;;;;;;;2.67;0.00;;;;;23.30;48.52;101259.22;5019779;28;46223;-65
2023/08/13 09:55:22;;;;;;;;;3.25;2.50;;;;;23.38;48.22;101261.44;5019636;28;45297;-65
2023/08/13 09:57:50;;;;;;;;;1.75;1.00;;;;;23.42;47.96;101262.13;5019723;28;45354;-65
2023/08/13 10:00:16;;;;;;;;;0.00;0.00;;;;;23.46;48.04;101267.22;5037304;28;45293;-65
2023/08/13 10:02:42;;;;;;;;;0.25;0.00;;;;;23.54;47.58;101264.06;5039352;28;46469;-66
2023/08/13 10:05:09;;;;;;;;;3.00;1.00;;;;;23.58;47.55;101259.38;5039378;28;45151;-65
2023/08/13 10:07:36;;;;;;;;;1.00;1.00;;;;;23.61;47.42;101256.50;5029338;28;45269;-66
2023/08/13 10:10:03;;;;;;;;;1.00;1.00;;;;;23.66;47.32;101254.38;5021301;28;46222;-66
2023/08/13 10:12:30;;;;;;;;;3.00;1.00;;;;;23.70;47.50;101246.06;5026575;28;45430;-66
2023/08/13 10:14:55;;;;;;;;;0.00;0.00;;;;;23.79;47.26;101247.31;5039296;28;45315;-66
2023/08/13 10:17:26;;;;;;;;;2.00;1.00;;;;;23.88;47.46;101247.72;5039592;28;45251;-66
2023/08/13 10:19:55;;;;;;;;;2.25;1.00;;;;;23.94;47.07;101248.22;5039434;28;45451;-66
2023/08/13 10:22:40;;;;;;;;;1.00;1.00;;;;;24.06;47.56;101249.25;5039218;28;46383;-66
2023/08/13 10:25:07;;;;;;;;;2.00;2.00;;;;;24.17;47.11;101246.75;5039128;28;45404;-66
2023/08/13 10:27:41;;;;;;;;;1.25;1.25;;;;;24.29;47.21;101249.66;5039170;28;45481;-65
2023/08/13 10:30:10;;;;;;;;;4.00;2.00;;;;;24.46;47.48;101254.75;5039254;28;45539;-66
2023/08/13 10:33:03;;;;;;;;;0.75;0.75;;;;;24.65;47.46;101257.16;5035911;28;45329;-66
2023/08/13 10:35:33;;;;;;;;;1.50;1.50;;;;;24.81;46.75;101256.13;5037124;28;45262;-65
2023/08/13 10:38:00;;;;;;;;;2.00;1.00;;;;;24.93;47.05;101258.03;5023069;28;45369;-66
2023/08/13 10:40:26;;;;;;;;;2.00;1.75;;;;;25.05;46.55;101250.94;5022556;28;45263;-66
2023/08/13 10:42:55;;;;;;;;;1.00;1.00;;;;;25.21;46.93;101249.94;5022379;28;45411;-66
2023/08/13 10:45:28;;;;;;;;;3.00;1.67;;;;;25.33;46.58;101243.69;5022679;28;45405;-66
2023/08/13 10:47:57;;;;;;;;;2.00;2.00;;;;;25.43;46.46;101242.13;5022653;28;45199;-66
2023/08/13 10:50:28;;;;;;;;;1.00;1.00;;;;;25.53;46.47;101239.63;5022484;28;45414;-65
2023/08/13 10:53:01;;;;;;;;;2.75;1.25;;;;;25.64;45.58;101257.75;5022451;28;46592;-66
2023/08/13 10:55:29;;;;;;;;;1.00;1.00;;;;;25.74;46.29;101249.88;5022336;28;45433;-66
2023/08/13 10:57:54;;;;;;;;;1.75;1.75;;;;;25.85;45.53;101238.34;5022480;28;45251;-66
2023/08/13 11:00:25;;;;;;;;;2.00;2.00;;;;;26.01;44.97;101244.38;5040761;28;45291;-66
2023/08/13 11:02:59;;;;;;;;;1.67;0.67;;;;;26.18;45.19;101235.09;5041610;28;45813;-66
2023/08/13 11:05:26;;;;;;;;;3.33;2.00;;;;;26.42;45.38;101235.13;5040914;28;45843;-66
2023/08/13 11:07:51;;;;;;;;;2.75;2.00;;;;;26.67;45.34;101240.56;5028928;28;45446;-66
2023/08/13 11:10:19;;;;;;;;;3.00;1.75;;;;;26.93;44.60;101236.78;5022362;28;45306;-66
2023/08/13 11:12:49;;;;;;;;;1.00;1.00;;;;;27.19;44.33;101233.06;5030322;28;47261;-66
2023/08/13 11:15:15;;;;;;;;;3.00;2.00;;;;;27.41;43.90;101224.19;5042140;28;45392;-66
2023/08/13 11:17:46;;;;;;;;;4.00;2.50;;;;;27.61;43.76;101227.16;5042417;28;45363;-66
2023/08/13 11:20:12;;;;;;;;;2.25;2.00;;;;;27.80;43.58;101234.66;5042010;28;45310;-66
2023/08/13 11:22:38;;;;;;;;;4.50;1.00;;;;;28.01;43.69;101224.84;5041575;28;46153;-66
2023/08/13 11:25:03;;;;;;;;;2.50;2.50;;;;;28.24;43.90;101232.06;5041822;28;45257;-66